Burnt Hills, New York
Current Conditions -  °F | °C
As of 9:51 AM on Monday 22 Dec 2014 (Local Time) from KALB Reporting Station
Light Snow Light Snow  
Wind Chill: -3°   Ceiling: 1700
Heat Index: -1°   Visibility: 9mi
Dew Point: -4°   Wind: 5mph
Humidity: 76%   Direction: 10°N
Pressure: 30.37"   Gusts: NA
Location:  42.91°N, 73.9°W
Report Text: KALB 221451Z 01004KT 9SM -SN OVC017 M01/M04 A3037 RMK AO2 SLP286 P0000 60000 T10061044 53002
Loading
Personal Weather Stations






























Interactive Weather Map New forecast layout! Learn more

10-Day Weather Forecast

Advertisements
Track Severe Weather on mobile